Time;durP1;ratioP1;P1;durP2;ratioP2;P2;SDS_P1;SDS_P2;PMS_P1;PMS_P2;Temp;Humidity;BMP_temperature;BMP_pressure;BME280_temperature;BME280_humidity;BME280_pressure;Samples;Min_cycle;Max_cycle;Signal;HPM_P1;HPM_P2
2024/04/25 00:00:49;;;;;;;2.40;2.20;;;6.20;99.90;;;-141.84;76.28;21753.19;5433724;26;20268;-73
2024/04/25 00:03:19;;;;;;;2.80;2.50;;;6.10;99.90;;;-141.84;78.80;32263.59;5449041;26;20683;-73
2024/04/25 00:05:49;;;;;;;2.50;2.30;;;6.10;99.90;;;-141.84;80.67;49157.03;5447359;26;20779;-73
2024/04/25 00:08:19;;;;;;;3.00;2.70;;;5.90;99.90;;;-141.84;82.60;61757.66;5447566;26;20871;-74
2024/04/25 00:10:53;;;;;;;3.77;2.90;;;5.90;99.90;;;-141.84;83.34;63598.59;5447986;26;20253;-73
2024/04/25 00:13:28;;;;;;;3.80;2.60;;;5.80;99.90;;;-141.84;84.37;70970.84;5448798;26;20230;-73
2024/04/25 00:16:01;;;;;;;2.63;2.43;;;5.80;99.90;;;-141.84;83.27;64914.06;5449044;26;20240;-74
2024/04/25 00:18:31;;;;;;;2.60;2.40;;;5.80;99.90;;;-141.84;82.75;62020.59;5447757;26;20666;-74
2024/04/25 00:21:04;;;;;;;2.70;2.40;;;5.80;99.90;;;-141.84;84.22;68072.97;5455603;26;20357;-74
2024/04/25 00:23:34;;;;;;;3.60;2.70;;;5.80;99.90;;;-141.84;85.66;76508.97;5453647;26;20249;-74
2024/04/25 00:26:05;;;;;;;3.40;2.87;;;5.70;99.90;;;-141.84;87.71;84962.78;5433707;26;20264;-73
2024/04/25 00:28:38;;;;;;;3.10;2.80;;;5.80;99.90;;;-141.84;87.67;84962.78;5447678;26;20833;-71
2024/04/25 00:31:08;;;;;;;3.10;2.80;;;5.80;99.90;;;-141.84;86.85;82847.66;5449593;26;20253;-72
2024/04/25 00:33:38;;;;;;;3.07;2.77;;;5.80;99.90;;;-141.84;85.25;74134.56;5450915;26;20357;-73
2024/04/25 00:36:09;;;;;;;2.97;2.67;;;5.80;99.90;;;-141.84;85.23;75453.50;5452209;26;20303;-73
2024/04/25 00:38:39;;;;;;;2.77;2.50;;;5.80;99.90;;;-141.84;83.04;62809.50;5436714;26;20266;-74
2024/04/25 00:41:10;;;;;;;2.77;2.57;;;5.90;99.90;;;-141.84;80.92;49157.03;5452001;26;20252;-74
2024/04/25 00:43:43;;;;;;;2.97;2.70;;;6.00;99.90;;;-141.84;81.11;50467.75;5451191;26;20229;-73
2024/04/25 00:46:13;;;;;;;2.77;2.30;;;6.00;99.90;;;-141.84;79.91;41244.78;5453671;26;20232;-72
2024/04/25 00:48:43;;;;;;;2.43;2.23;;;5.90;99.90;;;-141.84;79.86;38934.25;5454369;26;20257;-73
2024/04/25 00:51:16;;;;;;;2.50;2.30;;;5.80;99.90;;;-141.84;80.80;47060.84;5451829;26;20261;-73
2024/04/25 00:53:49;;;;;;;2.80;2.60;;;5.80;99.90;;;-141.84;81.44;50992.13;5452098;26;20253;-73
2024/04/25 00:56:23;;;;;;;3.10;2.87;;;5.80;99.90;;;-141.84;80.71;47322.81;5451243;26;20256;-73
2024/04/25 00:59:02;;;;;;;2.87;2.67;;;5.70;99.90;;;-141.84;81.17;51778.88;5451269;26;20267;-73
2024/04/25 01:01:36;;;;;;;3.30;3.00;;;5.70;99.90;;;-141.84;82.64;62020.59;5421510;26;20272;-72
2024/04/25 01:04:08;;;;;;;2.80;2.60;;;5.80;99.90;;;-141.84;83.08;61757.66;5452765;26;20761;-73
2024/04/25 01:06:43;;;;;;;2.73;2.53;;;5.70;99.90;;;-141.84;81.82;55189.84;5452113;26;20264;-72
2024/04/25 01:09:13;;;;;;;3.03;2.57;;;5.70;99.90;;;-141.84;82.59;60443.22;5437050;26;20256;-73
2024/04/25 01:11:43;;;;;;;2.80;2.60;;;5.60;99.90;;;-141.84;83.88;66493.19;5451713;26;20256;-72
2024/04/25 01:14:16;;;;;;;2.83;2.63;;;5.70;99.90;;;-141.84;83.75;66756.44;5451672;26;20260;-74
2024/04/25 01:16:47;;;;;;;3.33;2.57;;;5.70;99.90;;;-141.84;86.84;79148.88;5451024;26;20236;-73
2024/04/25 01:19:18;;;;;;;3.00;2.50;;;5.60;99.90;;;-141.84;89.30;88666.94;5452319;26;20336;-74
2024/04/25 01:21:50;;;;;;;3.90;2.90;;;5.60;99.90;;;-141.84;90.89;93169.38;5451260;26;20260;-74
2024/04/25 01:24:29;;;;;;;3.70;2.80;;;5.50;99.90;;;-141.84;91.80;96350.63;5451414;26;20253;-74
2024/04/25 01:27:05;;;;;;;3.40;2.90;;;5.40;99.90;;;-141.84;93.53;100596.16;5435565;26;20252;-74
2024/04/25 01:29:38;;;;;;;3.50;3.17;;;5.30;99.90;;;-141.84;95.56;105643.53;5435467;26;20604;-74
2024/04/25 01:32:09;;;;;;;4.07;3.67;;;5.30;99.90;;;-141.84;96.80;107504.66;5419369;26;20253;-74
2024/04/25 01:34:41;;;;;;;3.23;2.93;;;5.30;99.90;;;-141.84;97.40;109100.59;5436389;26;20330;-74
2024/04/25 01:37:14;;;;;;;3.60;3.30;;;5.30;99.90;;;-141.84;98.21;110431.03;5418627;26;20336;-74
2024/04/25 01:39:47;;;;;;;3.53;3.23;;;5.20;99.90;;;-141.84;99.43;112028.13;5408084;26;20249;-74
2024/04/25 01:42:22;;;;;;;4.57;3.80;;;5.20;99.90;;;-141.84;96.84;108834.56;5437900;26;20265;-73
2024/04/25 01:44:52;;;;;;;4.60;3.27;;;5.20;99.90;;;-141.84;97.05;108834.56;5433274;26;21121;-74
2024/04/25 01:47:23;;;;;;;4.07;3.67;;;5.30;99.90;;;-141.84;96.63;108036.56;5435668;26;20287;-74
2024/04/25 01:49:54;;;;;;;4.50;4.10;;;5.30;99.90;;;-141.84;96.72;108036.56;5422438;26;20367;-74
2024/04/25 01:52:24;;;;;;;4.40;3.80;;;5.30;99.90;;;-141.84;98.06;110164.91;5431104;26;20225;-74
2024/04/25 01:54:54;;;;;;;4.50;4.10;;;5.30;99.90;;;-141.84;96.46;108302.56;5437344;26;20257;-73
2024/04/25 01:57:26;;;;;;;6.60;4.47;;;5.30;99.90;;;-141.84;95.49;105377.72;5431455;26;20258;-74
2024/04/25 01:59:56;;;;;;;4.93;4.30;;;5.30;99.90;;;-141.84;97.03;107770.63;5426617;26;20296;-73
2024/04/25 02:02:27;;;;;;;6.00;4.10;;;5.30;99.90;;;-141.84;96.53;107504.66;5436616;26;20817;-74
2024/04/25 02:04:58;;;;;;;6.50;4.60;;;5.30;99.90;;;-141.84;97.74;108834.56;5443401;26;20293;-73
2024/04/25 02:07:28;;;;;;;4.47;4.07;;;5.30;99.90;;;-141.84;96.58;108036.56;5433566;26;20242;-73
2024/04/25 02:09:58;;;;;;;5.10;3.97;;;5.30;99.90;;;-141.84;98.36;110697.16;5432671;26;20242;-74
2024/04/25 02:12:31;;;;;;;4.60;4.03;;;5.30;99.90;;;-141.84;99.85;112560.63;5436591;26;20256;-73
2024/04/25 02:15:02;;;;;;;4.87;4.37;;;5.20;99.90;;;-141.84;100.00;115490.59;5435870;26;20260;-73
2024/04/25 02:17:32;;;;;;;4.60;3.67;;;5.30;99.90;;;-141.84;100.00;115490.59;5432678;26;20749;-72
2024/04/25 02:25:13;;;;;;;4.00;3.57;;;5.30;99.90;;;-141.84;100.00;114158.53;5433815;26;20647;-72
2024/04/25 02:25:39;;;;;;;5.70;4.03;;;5.30;99.90;;;-141.84;100.00;115757.06;5446226;26;20290;-73
2024/04/25 02:28:12;;;;;;;6.07;4.50;;;5.40;99.90;;;-141.84;100.00;115757.06;5435268;26;20242;-73
2024/04/25 02:30:43;;;;;;;4.60;4.20;;;5.40;99.90;;;-141.84;100.00;114424.91;5432657;26;20258;-74
2024/04/25 02:33:13;;;;;;;4.63;4.23;;;5.40;99.90;;;-141.84;100.00;114158.53;5417576;26;20250;-73
2024/04/25 02:35:44;;;;;;;5.03;4.00;;;5.40;99.90;;;-141.84;100.00;114691.31;5431613;26;20300;-74
2024/04/25 02:38:14;;;;;;;5.53;4.13;;;5.50;99.90;;;-141.84;100.00;114424.91;5429730;26;20248;-74
2024/04/25 02:40:45;;;;;;;4.30;3.80;;;5.50;99.90;;;-141.84;100.00;114691.31;5420884;26;20325;-73
2024/04/25 02:43:19;;;;;;;5.77;4.50;;;5.50;99.90;;;-141.84;100.00;114158.53;5435932;26;20230;-73
2024/04/25 02:45:47;;;;;;;4.33;3.70;;;5.50;99.90;;;-141.84;100.00;113625.81;5431499;26;20261;-73
2024/04/25 02:48:17;;;;;;;4.80;4.40;;;5.50;99.90;;;-141.84;99.25;112560.63;5430509;26;20254;-72
2024/04/25 02:50:46;;;;;;;4.20;3.87;;;5.50;99.90;;;-141.84;96.89;109100.59;5429619;26;20353;-75
2024/04/25 02:53:16;;;;;;;6.57;4.43;;;5.50;99.90;;;-141.84;94.37;102720.59;5429547;26;20639;-74
2024/04/25 02:55:44;;;;;;;4.87;4.37;;;5.60;99.90;;;-141.84;94.38;102720.59;5430565;26;20230;-73
2024/04/25 02:58:14;;;;;;;5.53;5.00;;;5.60;99.90;;;-141.84;94.15;103517.56;5429949;26;20225;-73
2024/04/25 03:00:44;;;;;;;4.90;4.40;;;5.60;99.90;;;-141.84;95.10;104314.66;5435532;26;20256;-72
2024/04/25 03:03:14;;;;;;;5.67;4.50;;;5.60;99.90;;;-141.84;97.26;108834.56;5433007;26;20303;-74
2024/04/25 03:05:42;;;;;;;5.40;4.80;;;5.60;99.90;;;-141.84;96.99;108834.56;5432440;26;20258;-73
2024/04/25 03:08:12;;;;;;;5.57;4.50;;;5.60;99.90;;;-141.84;96.07;106706.94;5433715;26;20257;-74
2024/04/25 03:10:40;;;;;;;5.90;5.30;;;5.70;99.90;;;-141.84;93.65;102189.38;5434451;26;20227;-73
2024/04/25 03:13:10;;;;;;;6.20;5.60;;;5.70;99.90;;;-141.84;93.84;102189.38;5430768;26;20274;-73
2024/04/25 03:15:39;;;;;;;6.37;5.30;;;5.70;99.90;;;-141.84;93.67;102189.38;5430001;26;20297;-72
2024/04/25 03:18:12;;;;;;;5.27;4.33;;;5.70;99.90;;;-141.84;91.73;99268.97;5428992;26;20292;-73
2024/04/25 03:20:40;;;;;;;5.97;4.73;;;5.70;99.90;;;-141.84;90.68;93964.47;5416545;26;20293;-72
2024/04/25 03:23:10;;;;;;;5.80;5.27;;;5.70;99.90;;;-141.84;92.02;97942.19;5388528;26;20721;-72
2024/04/25 03:25:39;;;;;;;7.30;5.80;;;5.70;99.90;;;-141.84;89.36;90520.28;5433745;26;20309;-72
2024/04/25 03:28:10;;;;;;;5.47;4.97;;;5.70;99.90;;;-141.84;88.12;84698.34;5434322;26;20678;-72
2024/04/25 03:30:39;;;;;;;6.33;4.80;;;5.70;99.90;;;-141.84;90.83;93169.38;5433324;26;20292;-73
2024/04/25 03:33:12;;;;;;;5.80;5.30;;;5.70;99.90;;;-141.84;88.84;88402.22;5417941;26;20309;-72
2024/04/25 03:35:40;;;;;;;6.13;5.10;;;5.70;99.90;;;-141.84;89.13;88666.94;5430006;26;20254;-71
2024/04/25 03:38:10;;;;;;;6.13;5.47;;;5.70;99.90;;;-141.84;89.77;90520.28;5428740;26;20391;-73
2024/04/25 03:40:44;;;;;;;5.80;5.23;;;5.70;99.90;;;-141.84;88.07;87872.91;5412087;26;20275;-72
2024/04/25 03:43:14;;;;;;;5.80;4.87;;;5.70;99.90;;;-141.84;85.17;75453.50;5363914;26;20229;-73
2024/04/25 03:45:45;;;;;;;5.77;4.97;;;5.80;99.90;;;-141.84;85.86;75453.50;5430334;26;20248;-72
2024/04/25 03:48:18;;;;;;;5.73;5.13;;;5.80;99.90;;;-141.84;88.53;85227.25;5429668;26;20359;-72
2024/04/25 03:50:48;;;;;;;5.10;4.60;;;5.80;99.90;;;-141.84;89.71;91049.97;5418838;26;20253;-73
2024/04/25 03:53:18;;;;;;;5.17;4.67;;;5.80;99.90;;;-141.84;89.09;88402.22;5419875;26;20298;-73
2024/04/25 03:55:49;;;;;;;5.00;4.50;;;5.70;99.90;;;-141.84;86.07;77828.72;5433417;26;20287;-73
2024/04/25 03:58:20;;;;;;;5.50;5.00;;;5.80;99.90;;;-141.84;86.02;77564.72;5431527;26;20231;-74
2024/04/25 04:00:50;;;;;;;5.13;4.63;;;5.80;99.90;;;-141.84;86.23;77828.72;5428127;26;20331;-74
2024/04/25 04:03:23;;;;;;;5.77;5.10;;;5.80;99.90;;;-141.84;84.78;72552.38;5427907;26;20399;-75
2024/04/25 04:05:53;;;;;;;5.20;4.70;;;5.80;99.90;;;-141.84;86.13;75981.22;5428705;26;20353;-74
2024/04/25 04:08:23;;;;;;;7.67;4.37;;;5.70;99.90;;;-141.84;83.07;64914.06;5428674;26;20354;-74
2024/04/25 04:10:53;;;;;;;5.73;4.57;;;5.80;99.90;;;-141.84;83.43;61231.81;5428204;26;20296;-74
2024/04/25 04:13:24;;;;;;;5.00;4.50;;;5.80;99.90;;;-141.84;81.98;54927.34;5434232;26;20328;-73
2024/04/25 04:15:54;;;;;;;4.90;4.17;;;5.80;99.90;;;-141.84;83.05;60443.22;5432496;26;20257;-74
2024/04/25 04:18:26;;;;;;;4.80;4.30;;;5.80;99.90;;;-141.84;81.80;52565.75;5428642;26;20324;-72
2024/04/25 04:20:56;;;;;;;4.90;4.50;;;5.80;99.90;;;-141.84;80.74;44703.94;5431642;26;20622;-73
2024/04/25 04:23:27;;;;;;;5.20;4.70;;;5.80;99.90;;;-141.84;81.47;49943.41;5431825;26;20250;-73
2024/04/25 04:25:58;;;;;;;4.53;4.13;;;5.80;99.90;;;-141.84;81.51;51778.88;5434961;26;20334;-73
2024/04/25 04:28:28;;;;;;;4.93;4.43;;;5.80;99.90;;;-141.84;82.31;57815.66;5437034;26;20230;-74
2024/04/25 04:30:58;;;;;;;4.80;4.33;;;5.80;99.90;;;-141.84;83.89;67019.72;5431576;26;20237;-74
2024/04/25 04:33:34;;;;;;;5.17;4.63;;;5.70;99.90;;;-141.84;82.90;61757.66;5425514;26;20304;-72
2024/04/25 04:36:10;;;;;;;4.93;4.43;;;5.70;99.90;;;-141.84;83.08;63335.53;5430769;26;20679;-73
2024/04/25 04:38:42;;;;;;;5.47;4.57;;;5.70;99.90;;;-141.84;81.83;52565.75;5433683;26;20322;-73
2024/04/25 04:41:12;;;;;;;5.63;5.07;;;5.70;99.90;;;-141.84;81.34;53615.19;5435094;26;20305;-72
2024/04/25 04:43:42;;;;;;;5.63;5.00;;;5.80;99.90;;;-141.84;81.59;54664.88;5433596;26;20256;-73
2024/04/25 04:46:12;;;;;;;5.30;4.80;;;5.80;99.90;;;-141.84;80.12;41557.47;5439364;26;20260;-73
2024/04/25 04:48:48;;;;;;;5.67;5.17;;;5.90;99.90;;;-141.84;78.67;29791.25;5431049;26;20604;-72
2024/04/25 04:51:18;;;;;;;5.97;5.03;;;5.90;99.90;;;-141.84;80.80;45227.56;5436861;26;20348;-73
2024/04/25 04:53:51;;;;;;;6.23;5.23;;;5.90;99.90;;;-141.84;79.95;46013.16;5434120;26;20253;-73
2024/04/25 04:56:25;;;;;;;5.70;5.20;;;5.90;99.90;;;-141.84;77.64;25219.59;5414901;26;20320;-73
2024/04/25 04:58:56;;;;;;;6.10;5.50;;;5.90;99.90;;;-141.84;78.87;32143.28;5426271;26;20350;-73
2024/04/25 05:01:27;;;;;;;6.47;5.80;;;5.90;99.90;;;-141.84;77.93;26133.50;5430681;26;20264;-73
2024/04/25 05:04:01;;;;;;;7.20;5.63;;;5.90;99.90;;;-141.84;79.16;33519.72;5424853;26;20242;-72
2024/04/25 05:06:31;;;;;;;6.67;5.73;;;5.90;99.90;;;-141.84;80.34;39485.72;5429629;26;20292;-72
2024/04/25 05:09:06;;;;;;;6.57;5.87;;;5.80;99.90;;;-141.84;81.02;50729.94;5415828;26;20262;-74
2024/04/25 05:11:35;;;;;;;6.43;5.67;;;5.80;99.90;;;-141.84;81.61;52041.16;5428999;26;20824;-72
2024/04/25 05:14:10;;;;;;;6.30;5.20;;;5.80;99.90;;;-141.84;79.26;37435.47;5435909;26;21159;-73
2024/04/25 05:16:41;;;;;;;6.70;5.07;;;5.90;99.90;;;-141.84;77.68;26288.22;5441296;26;20677;-73
2024/04/25 05:19:14;;;;;;;6.50;5.80;;;6.00;99.90;;;-141.84;79.72;38137.81;5433852;26;20451;-73
2024/04/25 05:21:46;;;;;;;6.37;5.20;;;6.10;99.90;;;-141.84;79.88;39820.72;5437371;26;20295;-73
2024/04/25 05:24:16;;;;;;;6.27;5.10;;;6.10;99.90;;;-141.84;78.54;32126.97;5451535;26;20299;-74
2024/04/25 05:26:48;;;;;;;5.70;4.60;;;6.20;99.90;;;-141.84;77.92;27163.66;5452151;26;20253;-74
2024/04/25 05:29:18;;;;;;;5.50;4.90;;;6.10;99.90;;;-141.84;79.47;36627.09;5452378;26;20728;-73
2024/04/25 05:31:48;;;;;;;5.00;4.50;;;6.00;99.90;;;-141.84;77.39;25406.84;5451887;26;20229;-72
2024/04/25 05:34:22;;;;;;;6.47;4.50;;;6.10;99.90;;;-141.84;78.86;31429.78;5452675;26;20233;-73
2024/04/25 05:36:52;;;;;;;5.83;5.17;;;6.00;99.90;;;-141.84;79.86;43395.16;5452605;26;20837;-73
2024/04/25 05:39:26;;;;;;;7.57;5.47;;;6.00;99.90;;;-141.84;80.32;44965.75;5451798;26;20295;-73
2024/04/25 05:41:56;;;;;;;7.47;5.17;;;5.90;99.90;;;-141.84;81.93;58866.47;5452376;26;20653;-70
2024/04/25 05:44:27;;;;;;;6.20;5.10;;;5.90;99.90;;;-141.84;80.61;46275.03;5452032;26;20294;-73
2024/04/25 05:46:59;;;;;;;5.87;5.10;;;5.90;99.90;;;-141.84;79.98;46013.16;5452123;26;20245;-73
2024/04/25 05:49:32;;;;;;;6.27;4.87;;;6.00;99.90;;;-141.84;79.44;35959.72;5452302;26;20229;-73
2024/04/25 05:52:03;;;;;;;7.13;5.50;;;6.00;99.90;;;-141.84;78.88;32616.31;5451642;26;20331;-73
2024/04/25 05:54:34;;;;;;;6.10;5.50;;;6.10;99.90;;;-141.84;77.16;24385.25;5451829;26;20295;-74
2024/04/25 05:57:04;;;;;;;6.10;5.50;;;6.10;99.90;;;-141.84;77.92;26819.56;5451433;26;20260;-73
2024/04/25 05:59:34;;;;;;;6.67;6.00;;;6.10;99.90;;;-141.84;78.16;28267.44;5452009;26;20253;-74
2024/04/25 06:02:07;;;;;;;7.30;6.47;;;6.00;99.90;;;-141.84;78.73;31474.63;5451651;26;20736;-74
2024/04/25 06:04:43;;;;;;;8.97;6.20;;;6.00;99.90;;;-141.84;82.11;55189.84;5392447;26;20303;-72
2024/04/25 06:07:13;;;;;;;6.80;6.10;;;5.80;99.90;;;-141.84;81.45;53352.78;5452631;26;20276;-74
2024/04/25 06:09:43;;;;;;;7.27;6.13;;;5.80;99.90;;;-141.84;81.76;54664.88;5451862;26;20294;-73
2024/04/25 06:12:14;;;;;;;9.63;6.93;;;5.70;99.90;;;-141.84;84.61;69389.94;5451946;26;20261;-73
2024/04/25 06:14:44;;;;;;;8.83;7.10;;;5.70;99.90;;;-141.84;84.06;71497.94;5452986;26;20262;-74
2024/04/25 06:17:15;;;;;;;8.50;7.03;;;5.70;99.90;;;-141.84;84.37;68336.31;5451436;26;20253;-73
2024/04/25 06:19:50;;;;;;;9.17;7.10;;;5.70;99.90;;;-141.84;86.48;78092.72;5456071;26;20279;-74
2024/04/25 06:22:22;;;;;;;9.37;7.40;;;5.60;99.90;;;-141.84;87.17;81790.53;5461009;26;20240;-74
2024/04/25 06:24:52;;;;;;;14.63;8.67;;;5.60;99.90;;;-141.84;84.94;74925.88;5420353;26;20269;-77
2024/04/25 06:27:24;;;;;;;9.77;8.20;;;5.60;99.90;;;-141.84;86.02;74662.09;5418337;26;20285;-76
2024/04/25 06:29:54;;;;;;;10.33;8.20;;;5.70;99.90;;;-141.84;89.34;88402.22;5414874;26;21014;-76
2024/04/25 06:32:27;;;;;;;10.90;7.77;;;5.70;99.90;;;-141.84;88.14;87872.91;5416176;26;20288;-77
2024/04/25 06:35:02;;;;;;;10.00;7.70;;;5.80;99.90;;;-141.84;85.15;75189.69;5416949;26;20350;-76
2024/04/25 06:37:34;;;;;;;8.97;6.97;;;5.80;99.90;;;-141.84;84.43;70443.78;5436670;26;20232;-76
2024/04/25 06:40:05;;;;;;;10.97;7.60;;;5.80;99.90;;;-141.84;84.24;69916.81;5441553;26;20351;-75
2024/04/25 06:42:35;;;;;;;10.30;7.43;;;5.90;99.90;;;-141.84;86.37;78620.75;5414230;26;20788;-70
2024/04/25 06:45:05;;;;;;;8.17;7.10;;;6.00;99.90;;;-141.84;82.81;64387.81;5415628;26;20343;-69
2024/04/25 06:47:36;;;;;;;8.23;7.03;;;6.00;99.90;;;-141.84;82.30;61494.72;5414486;26;20292;-69
2024/04/25 06:50:11;;;;;;;9.90;7.30;;;6.10;99.90;;;-141.84;82.97;63072.50;5414147;26;20261;-71
2024/04/25 06:52:41;;;;;;;11.80;7.70;;;6.20;99.90;;;-141.84;80.96;53352.78;5414683;26;20273;-70
2024/04/25 06:55:12;;;;;;;9.43;7.10;;;6.20;99.90;;;-141.84;80.67;47060.84;5430512;26;20334;-71
2024/04/25 06:57:42;;;;;;;8.07;6.90;;;6.20;99.90;;;-141.84;81.46;52565.75;5414206;26;20250;-71
2024/04/25 07:00:14;;;;;;;8.73;6.50;;;6.10;99.90;;;-141.84;81.01;53615.19;5414504;26;20351;-72
2024/04/25 07:02:44;;;;;;;8.50;6.57;;;6.20;99.90;;;-141.84;78.59;34333.56;5422487;26;20250;-72
2024/04/25 07:05:19;;;;;;;6.73;5.40;;;6.20;99.90;;;-141.84;77.81;26355.38;5410252;26;20255;-71
2024/04/25 07:07:50;;;;;;;8.73;5.83;;;6.30;99.90;;;-141.84;75.84;21928.06;5414936;26;26003;-72
2024/04/25 07:10:24;;;;;;;6.40;5.50;;;6.40;99.90;;;-141.84;76.93;23986.47;5411401;26;20250;-71
2024/04/25 07:12:54;;;;;;;8.57;5.93;;;6.50;99.90;;;-141.84;77.35;24871.59;5406453;26;20310;-76
2024/04/25 07:15:26;;;;;;;6.57;5.87;;;6.60;99.90;;;-141.84;76.40;24253.00;5434648;26;20252;-74
2024/04/25 07:17:59;;;;;;;10.97;9.17;;;6.70;99.90;;;-141.84;74.82;20897.25;5422848;26;20659;-74
2024/04/25 07:20:32;;;;;;;12.20;9.97;;;6.80;99.90;;;-141.84;76.37;23079.19;5414550;26;20254;-74
2024/04/25 07:23:02;;;;;;;6.70;6.00;;;6.90;99.90;;;-141.84;72.27;19248.88;5408557;26;20306;-75
2024/04/25 07:25:32;;;;;;;7.93;5.77;;;6.90;99.90;;;-141.84;73.52;19541.50;5452221;26;20272;-77
2024/04/25 07:28:02;;;;;;;6.90;5.97;;;7.10;99.90;;;-141.84;75.04;20578.09;5438819;26;20235;-75
2024/04/25 07:30:32;;;;;;;6.10;5.50;;;7.10;99.90;;;-141.84;74.65;20840.31;5449435;26;20285;-79
2024/04/25 07:33:02;;;;;;;5.90;5.30;;;7.20;99.90;;;-141.84;73.45;19860.59;5406026;26;20301;-75
2024/04/25 07:35:35;;;;;;;5.53;5.03;;;7.40;99.90;;;-141.84;69.90;19131.03;5416511;26;20322;-78
2024/04/25 07:38:05;;;;;;;7.93;5.40;;;7.50;99.90;;;-141.84;72.30;19383.00;5415220;26;20303;-71
2024/04/25 07:40:37;;;;;;;5.93;4.97;;;7.60;99.90;;;-141.84;71.48;19279.38;5414584;26;20270;-65
2024/04/25 07:43:07;;;;;;;6.17;5.27;;;7.60;99.90;;;-141.84;69.07;19094.44;5415204;26;20227;-72
2024/04/25 07:45:37;;;;;;;5.50;5.00;;;7.60;99.90;;;-141.84;68.78;19080.22;5441841;26;20613;-78
2024/04/25 07:48:09;;;;;;;7.90;5.90;;;7.50;99.90;;;-141.84;70.57;19210.28;5439568;26;20866;-70
2024/04/25 07:50:42;;;;;;;6.47;5.73;;;7.60;99.90;;;-141.84;72.31;19521.19;5425379;26;20289;-70
2024/04/25 07:53:12;;;;;;;6.60;5.40;;;7.70;99.90;;;-141.84;69.96;19204.19;5403696;26;20305;-70
2024/04/25 07:55:43;;;;;;;6.90;5.37;;;7.60;99.90;;;-141.84;67.52;19090.38;5414002;26;20231;-69
2024/04/25 07:58:14;;;;;;;6.80;5.30;;;7.80;99.90;;;-141.84;65.38;19084.28;5414815;26;20226;-73
2024/04/25 08:00:44;;;;;;;5.87;5.30;;;8.30;99.90;;;-141.84;61.19;19175.72;5412275;26;20258;-72
2024/04/25 08:03:15;;;;;;;5.87;5.33;;;8.60;99.90;;;-141.84;58.42;19208.25;5412351;26;20666;-72
2024/04/25 08:05:48;;;;;;;6.47;5.00;;;8.80;99.90;;;-141.84;57.00;19208.25;5413493;26;20302;-73
2024/04/25 08:08:19;;;;;;;6.77;5.03;;;8.90;99.90;;;-141.84;56.40;19232.63;5411230;26;20281;-72
2024/04/25 08:10:55;;;;;;;6.07;5.10;;;9.00;99.90;;;-141.84;57.52;19202.16;5407475;26;20261;-71
2024/04/25 08:13:25;;;;;;;7.13;4.73;;;9.00;99.90;;;-141.84;58.35;19173.69;5423658;26;20231;-70
2024/04/25 08:15:55;;;;;;;6.60;5.07;;;8.80;99.90;;;-141.84;58.63;19171.66;5429698;26;20233;-71
2024/04/25 08:18:25;;;;;;;7.40;5.33;;;8.50;99.90;;;-141.84;60.45;19137.13;5433114;26;20309;-73
2024/04/25 08:20:59;;;;;;;6.20;5.60;;;8.40;99.90;;;-141.84;62.51;19149.31;5428669;26;20487;-74
2024/04/25 08:23:29;;;;;;;6.47;5.50;;;8.30;99.90;;;-141.84;60.51;19126.97;5413434;26;20281;-70
2024/04/25 08:25:59;;;;;;;5.70;5.03;;;8.20;99.90;;;-141.84;59.00;19126.97;5424580;26;20356;-70
2024/04/25 08:28:29;;;;;;;5.83;5.03;;;8.20;99.90;;;-141.84;60.14;19171.66;5432301;26;20237;-67
2024/04/25 08:30:59;;;;;;;5.87;4.80;;;8.30;99.90;;;-141.84;58.27;19175.72;5430709;26;20761;-69
2024/04/25 08:33:29;;;;;;;5.83;4.87;;;8.40;99.90;;;-141.84;56.83;19171.66;5435476;26;20266;-66
2024/04/25 08:36:02;;;;;;;6.43;5.00;;;8.50;99.90;;;-141.84;56.16;19222.47;5431166;26;20254;-65
2024/04/25 08:38:34;;;;;;;5.90;5.00;;;8.60;99.90;;;-141.84;55.76;19216.38;5438763;26;20297;-66
2024/04/25 08:41:05;;;;;;;8.07;5.10;;;8.70;99.90;;;-141.84;53.63;19206.22;5428740;26;20792;-65
2024/04/25 08:43:40;;;;;;;6.60;5.20;;;8.80;99.90;;;-141.84;55.19;19222.47;5433142;26;20257;-64
2024/04/25 08:46:15;;;;;;;5.20;4.70;;;8.80;99.90;;;-141.84;55.28;19187.91;5427335;26;20338;-66
2024/04/25 08:48:47;;;;;;;5.27;4.60;;;8.60;99.90;;;-141.84;53.69;19181.81;5417934;26;20350;-69
2024/04/25 08:51:25;;;;;;;5.00;4.57;;;8.60;99.90;;;-141.84;53.76;19200.13;5431777;26;20251;-69
2024/04/25 08:54:01;;;;;;;8.80;7.17;;;8.70;99.90;;;-141.84;52.27;19257.00;5434106;26;20336;-70
2024/04/25 08:56:33;;;;;;;5.80;4.97;;;8.70;99.90;;;-141.84;52.94;19244.81;5437513;26;20261;-73
2024/04/25 08:59:03;;;;;;;7.20;4.40;;;8.90;99.90;;;-141.84;52.49;19267.16;5424265;26;20297;-72
2024/04/25 09:01:35;;;;;;;5.33;4.67;;;9.00;99.90;;;-141.84;52.47;19289.53;5435854;26;20223;-72
2024/04/25 09:04:14;;;;;;;6.03;4.40;;;9.30;99.90;;;-141.84;51.32;19344.41;5431008;26;20273;-73
2024/04/25 09:06:46;;;;;;;6.57;4.67;;;9.50;99.90;;;-141.84;51.70;19309.84;5414859;26;20280;-74
2024/04/25 09:09:18;;;;;;;6.97;4.33;;;9.60;99.90;;;-141.84;50.64;19301.72;5438707;26;20741;-74
2024/04/25 09:11:55;;;;;;;5.10;4.43;;;9.50;99.90;;;-141.84;53.05;19198.09;5445126;26;20266;-71
2024/04/25 09:14:25;;;;;;;5.50;4.27;;;9.20;99.90;;;-141.84;54.88;19218.41;5430619;26;20728;-70
2024/04/25 09:16:55;;;;;;;5.13;4.63;;;9.10;99.90;;;-141.84;54.90;19224.50;5426523;26;20371;-72
2024/04/25 09:19:26;;;;;;;5.50;4.93;;;9.00;99.90;;;-141.84;54.69;19220.44;5433907;26;20277;-72
2024/04/25 09:21:59;;;;;;;6.13;4.70;;;9.10;99.90;;;-141.84;52.82;19263.09;5429758;26;20274;-73
2024/04/25 09:24:29;;;;;;;5.33;4.80;;;9.20;99.90;;;-141.84;51.16;19299.69;5429564;26;20255;-73
2024/04/25 09:26:59;;;;;;;5.63;4.50;;;9.40;99.90;;;-141.84;50.14;19358.63;5414593;26;20266;-74
2024/04/25 09:29:31;;;;;;;5.07;4.67;;;9.80;99.90;;;-141.84;47.75;19433.81;5414818;26;20250;-76
2024/04/25 09:32:02;;;;;;;4.60;4.20;;;10.20;99.90;;;-141.84;47.67;19486.66;5415434;26;20613;-74
2024/04/25 09:34:33;;;;;;;5.87;4.53;;;10.80;99.90;;;-141.84;44.50;19529.31;5415026;26;20635;-75
2024/04/25 09:37:06;;;;;;;6.20;4.63;;;11.00;99.90;;;-141.84;46.48;19443.97;5435716;26;20227;-74
2024/04/25 09:39:36;;;;;;;5.13;4.33;;;10.70;99.90;;;-141.84;48.62;19397.22;5435768;26;21145;-77
2024/04/25 09:42:12;;;;;;;6.23;4.20;;;10.40;99.90;;;-141.84;49.03;19301.72;5421748;26;20254;-77
2024/04/25 09:44:42;;;;;;;3.90;3.23;;;9.90;99.90;;;-141.84;49.27;19275.31;5430641;26;20250;-77
2024/04/25 09:47:21;;;;;;;4.90;4.00;;;9.50;99.90;;;-141.84;49.81;19259.03;5419059;26;20255;-76
2024/04/25 09:49:58;;;;;;;5.53;3.87;;;9.20;99.90;;;-141.84;49.63;19271.25;5416225;26;20290;-77
2024/04/25 09:52:40;;;;;;;5.70;3.10;;;9.10;99.90;;;-141.84;48.28;19328.13;5420085;26;20670;-78
2024/04/25 09:55:21;;;;;;;4.53;3.33;;;9.30;99.90;;;-141.84;47.38;19368.78;5403708;26;20231;-77
2024/04/25 09:57:58;;;;;;;3.80;3.40;;;9.70;99.90;;;-141.84;46.24;19415.50;5416681;26;20284;-79
2024/04/25 10:00:28;;;;;;;5.07;2.93;;;10.00;99.90;;;-141.84;45.18;19405.34;5430917;26;20254;-75
2024/04/25 10:03:00;;;;;;;3.93;2.80;;;10.30;99.90;;;-141.84;44.24;19443.97;5429347;26;20289;-73
2024/04/25 10:05:30;;;;;;;2.77;2.50;;;10.30;99.90;;;-141.84;43.59;19429.75;5429905;26;20360;-74
2024/04/25 10:08:04;;;;;;;3.27;2.97;;;10.40;99.90;;;-141.84;43.85;19431.78;5431010;26;20323;-79
2024/04/25 10:10:35;;;;;;;3.73;2.77;;;10.40;99.90;;;-141.84;43.64;19470.38;5431944;26;20264;-68
2024/04/25 10:13:05;;;;;;;4.30;3.10;;;10.40;99.90;;;-141.84;44.28;19456.16;5424096;26;20671;-73
2024/04/25 10:15:36;;;;;;;4.20;2.63;;;10.60;99.90;;;-141.84;41.58;19539.47;5409805;26;20840;-78
2024/04/25 10:18:09;;;;;;;3.40;3.10;;;10.80;99.90;;;-141.84;41.31;19559.81;5421551;26;20325;-71
2024/04/25 10:20:39;;;;;;;3.47;2.93;;;10.90;99.90;;;-141.84;42.45;19565.91;5418861;26;20259;-71
2024/04/25 10:23:12;;;;;;;3.43;2.80;;;11.00;99.90;;;-141.84;41.84;19574.03;5414893;26;20355;-72
2024/04/25 10:25:54;;;;;;;2.63;2.40;;;11.00;99.90;;;-141.84;41.14;19541.50;5437768;26;20319;-72
2024/04/25 10:28:24;;;;;;;2.50;2.30;;;10.90;99.90;;;-141.84;41.59;19494.78;5450268;26;20226;-72
2024/04/25 10:30:57;;;;;;;2.77;2.30;;;10.60;99.90;;;-141.84;42.67;19448.03;5454102;26;20292;-70